SKBO/BOG METAR and TAF weather

Enter ICAO airport designator
Station Type Date Time Source
SKBO METAR 2020/07/12 20:00 UTC NOAA

SKBO 122000Z 03005KT 9999 VCSH BKN020 SCT080 17/09 A3029 NOSIG RMK VCSH/NE/E


Station Type Date Time Source
SKBO Decoded METAR 2020/07/12 20:00 UTC NOAA

Bogota / Eldorado, Colombia (SKBO) 04-43N 074-09W 2548M
Jul 12, 2020 - 04:00 PM EDT / 2020.07.12 2000 UTC
Wind: from the NNE (030 degrees) at 6 MPH (5 KT):0
Visibility: greater than 7 mile(s):0
Sky conditions: mostly cloudy
Weather: showers in the vicinity
Temperature: 62 F (17 C)
Dew Point: 48 F (9 C)
Relative Humidity: 59%
Pressure (altimeter): 30.29 in. Hg (1025 hPa)
ob: SKBO 122000Z 03005KT 9999 VCSH BKN020 SCT080 17/09 A3029 NOSIG RMK VCSH/NE/E
cycle: 20

Station Type Date Time Source
SKBO TAF 2020/07/12 18:45 UTC NOAA

TAF SKBO 121630Z 1218/1318 29009KT 9999 SCT015 SCT080
TEMPO 1219/1222 DZ BKN015 SCT080
BECMG 1300/1302 VRB02KT
TEMPO 1303/1308 5000 DZRA BKN015 TX20/1218Z TN10/1310Z

Example: see airport list